| time (UTC) | temp F | wind direction | speed knots | gust knots | rain 1hr in | rain 24hr in | rain mn in | humidity % | barometer mb |
| 20260905182211 | 66 | 260 | 6.1 | 0.0 | 0.00 | 0.00 | 0.00 | 48 | |
| 20260905181338 | 66 | 260 | 7.0 | 0.0 | 0.00 | 0.00 | 0.00 | 48 | 1019.0 |
| 20260905181138 | 66 | 260 | 7.0 | 0.0 | 0.00 | 0.00 | 0.00 | 48 | 1019.0 |
| 20260905180738 | 66 | 260 | 7.0 | 0.0 | 0.00 | 0.00 | 0.00 | 48 | 1019.0 |
| 20260905180341 | 66 | 260 | 7.0 | 0.0 | 0.00 | 0.00 | 0.00 | 48 | 1019.0 |
| 20260905180140 | 68 | 280 | 6.1 | 0.0 | 0.00 | 0.00 | 0.00 | 45 | 1019.0 |
| 20260905175438 | 68 | 280 | 6.1 | 0.0 | 0.00 | 0.00 | 0.00 | 45 | 1019.0 |
| 20260905175238 | 68 | 280 | 6.1 | 0.0 | 0.00 | 0.00 | 0.00 | 45 | 1019.0 |
| 20260905174738 | 68 | 280 | 6.1 | 0.0 | 0.00 | 0.00 | 0.00 | 45 | 1019.0 |
| 20260905174138 | 68 | 280 | 6.1 | 0.0 | 0.00 | 0.00 | 0.00 | 45 | 1019.0 |
| 20260905173452 | 68 | 280 | 6.1 | 0.0 | 0.00 | 0.00 | 0.00 | 45 | 1019.0 |
| 20260905172738 | 70 | 270 | 10.4 | 0.0 | 0.00 | 0.00 | 0.00 | 43 | 1019.0 |
| 20260905172248 | 70 | 270 | 10.4 | 0.0 | 0.00 | 0.00 | 0.00 | 43 | |
| 20260905172152 | 70 | 270 | 10.4 | 0.0 | 0.00 | 0.00 | 0.00 | 43 | 1019.0 |
| 20260905171600 | 70 | 270 | 10.4 | 0.0 | 0.00 | 0.00 | 0.00 | 43 | 1019.0 |
| 20260905170552 | 70 | 270 | 10.4 | 0.0 | 0.00 | 0.00 | 0.00 | 43 | 1019.0 |
| 20260905170237 | 70 | 270 | 10.4 | 0.0 | 0.00 | 0.00 | 0.00 | 43 | 1019.0 |
| 20260905163838 | 70 | 270 | 13.0 | 0.0 | 0.00 | 0.00 | 0.00 | 40 | 1018.0 |
| 20260905163231 | 70 | 270 | 13.0 | 0.0 | 0.00 | 0.00 | 0.00 | 40 | 1018.0 |
| 20260905162937 | 70 | 280 | 7.8 | 0.0 | 0.00 | 0.00 | 0.00 | 40 | 1018.0 |
| 20260905162616 | 70 | 280 | 12.2 | 0.0 | 0.00 | 0.00 | 0.00 | 40 | |
| 20260905162245 | 70 | 280 | 7.8 | 0.0 | 0.00 | 0.00 | 0.00 | 40 | 1018.0 |
| 20260905161639 | 70 | 280 | 7.8 | 0.0 | 0.00 | 0.00 | 0.00 | 40 | 1018.0 |
| 20260905161139 | 70 | 280 | 7.8 | 0.0 | 0.00 | 0.00 | 0.00 | 40 | 1018.0 |
| 20260905160838 | 70 | 280 | 7.8 | 0.0 | 0.00 | 0.00 | 0.00 | 40 | 1018.0 |
| 20260905160340 | 70 | 280 | 7.8 | 0.0 | 0.00 | 0.00 | 0.00 | 40 | 1018.0 |
| 20260905154738 | 72 | 270 | 12.2 | 0.0 | 0.00 | 0.00 | 0.00 | 37 | 1018.0 |
| 20260905154559 | 72 | 270 | 12.2 | 0.0 | 0.00 | 0.00 | 0.00 | 37 | 1018.0 |
| 20260905154238 | 72 | 270 | 12.2 | 0.0 | 0.00 | 0.00 | 0.00 | 37 | 1018.0 |
| 20260905152306 | 73 | 260 | 12.2 | 0.0 | 0.00 | 0.00 | 0.00 | 33 | |
| 20260905151849 | 72 | 260 | 13.9 | 0.0 | 0.00 | 0.00 | 0.00 | 35 | 1018.0 |
| 20260905151139 | 72 | 260 | 13.9 | 0.0 | 0.00 | 0.00 | 0.00 | 35 | 1018.0 |
| 20260905150637 | 72 | 260 | 13.9 | 0.0 | 0.00 | 0.00 | 0.00 | 35 | 1018.0 |
| 20260905145938 | 73 | 260 | 17.4 | 0.0 | 0.00 | 0.00 | 0.00 | 33 | 1017.0 |
| 20260905145638 | 73 | 260 | 17.4 | 0.0 | 0.00 | 0.00 | 0.00 | 33 | 1017.0 |
| 20260905145137 | 73 | 260 | 17.4 | 0.0 | 0.00 | 0.00 | 0.00 | 33 | 1017.0 |
| 20260905144238 | 73 | 260 | 17.4 | 0.0 | 0.00 | 0.00 | 0.00 | 33 | 1017.0 |
| 20260905143739 | 73 | 260 | 17.4 | 0.0 | 0.00 | 0.00 | 0.00 | 33 | 1017.0 |
| 20260905142145 | 73 | 260 | 14.8 | 0.0 | 0.00 | 0.00 | 0.00 | 38 | 1017.0 |
| 20260905142048 | 73 | 260 | 15.6 | 0.0 | 0.00 | 0.00 | 0.00 | 38 | |
| 20260905140451 | 73 | 260 | 14.8 | 0.0 | 0.00 | 0.00 | 0.00 | 38 | 1017.0 |
| 20260905140142 | 73 | 280 | 13.0 | 0.0 | 0.00 | 0.00 | 0.00 | 38 | 1017.0 |
| 20260905135100 | 73 | 280 | 13.0 | 0.0 | 0.00 | 0.00 | 0.00 | 38 | 1017.0 |
| 20260905134637 | 73 | 280 | 13.0 | 0.0 | 0.00 | 0.00 | 0.00 | 38 | 1017.0 |
| 20260905134238 | 73 | 280 | 13.0 | 0.0 | 0.00 | 0.00 | 0.00 | 38 | 1017.0 |
| 20260905133839 | 73 | 280 | 13.0 | 0.0 | 0.00 | 0.00 | 0.00 | 38 | 1017.0 |
| 20260905133451 | 73 | 280 | 13.0 | 0.0 | 0.00 | 0.00 | 0.00 | 38 | 1017.0 |
| 20260905133241 | 73 | 280 | 13.0 | 0.0 | 0.00 | 0.00 | 0.00 | 38 | 1017.0 |
| 20260905133138 | 73 | 270 | 13.9 | 0.0 | 0.00 | 0.00 | 0.00 | 40 | 1017.0 |
| 20260905132359 | 73 | 270 | 13.9 | 0.0 | 0.00 | 0.00 | 0.00 | 38 | |
| 20260905132248 | 73 | 270 | 13.9 | 0.0 | 0.00 | 0.00 | 0.00 | 40 | 1017.0 |
| 20260905131637 | 73 | 270 | 13.9 | 0.0 | 0.00 | 0.00 | 0.00 | 40 | 1017.0 |
| 20260905131138 | 73 | 270 | 13.9 | 0.0 | 0.00 | 0.00 | 0.00 | 40 | 1017.0 |
| 20260905130738 | 73 | 270 | 13.9 | 0.0 | 0.00 | 0.00 | 0.00 | 40 | 1017.0 |
| 20260905130242 | 73 | 270 | 13.9 | 0.0 | 0.00 | 0.00 | 0.00 | 40 | 1017.0 |
| 20260905125638 | 73 | 260 | 14.8 | 0.0 | 0.00 | 0.00 | 0.00 | 40 | 1018.0 |
| 20260905125439 | 73 | 260 | 14.8 | 0.0 | 0.00 | 0.00 | 0.00 | 40 | 1018.0 |
| 20260905125238 | 73 | 260 | 14.8 | 0.0 | 0.00 | 0.00 | 0.00 | 40 | 1018.0 |
| 20260905124938 | 73 | 260 | 14.8 | 0.0 | 0.00 | 0.00 | 0.00 | 40 | 1018.0 |
| 20260905124559 | 73 | 260 | 14.8 | 0.0 | 0.00 | 0.00 | 0.00 | 40 | 1018.0 |
| 20260905124059 | 73 | 260 | 14.8 | 0.0 | 0.00 | 0.00 | 0.00 | 40 | 1018.0 |
| 20260905123639 | 73 | 260 | 14.8 | 0.0 | 0.00 | 0.00 | 0.00 | 40 | 1018.0 |
| 20260905123338 | 73 | 260 | 14.8 | 0.0 | 0.00 | 0.00 | 0.00 | 40 | 1018.0 |
| 20260905123138 | 72 | 280 | 11.3 | 0.0 | 0.00 | 0.00 | 0.00 | 43 | 1018.0 |
| 20260905122256 | 73 | 280 | 10.4 | 0.0 | 0.00 | 0.00 | 0.00 | 40 | |
| 20260905122145 | 72 | 280 | 11.3 | 0.0 | 0.00 | 0.00 | 0.00 | 43 | 1018.0 |
| 20260905121749 | 72 | 280 | 11.3 | 0.0 | 0.00 | 0.00 | 0.00 | 43 | 1018.0 |
| 20260905121138 | 72 | 280 | 11.3 | 0.0 | 0.00 | 0.00 | 0.00 | 43 | 1018.0 |
| 20260905120553 | 72 | 280 | 11.3 | 0.0 | 0.00 | 0.00 | 0.00 | 43 | 1018.0 |
| 20260905115845 | 72 | 250 | 15.6 | 0.0 | 0.00 | 0.00 | 0.00 | 46 | 1018.0 |
| 20260905114059 | 72 | 250 | 15.6 | 0.0 | 0.00 | 0.00 | 0.00 | 46 | 1018.0 |
| 20260905113230 | 72 | 250 | 15.6 | 0.0 | 0.00 | 0.00 | 0.00 | 46 | 1018.0 |
| 20260905112738 | 70 | 250 | 13.0 | 0.0 | 0.00 | 0.00 | 0.00 | 49 | 1018.0 |
| 20260905112251 | 70 | 250 | 13.0 | 0.0 | 0.00 | 0.00 | 0.00 | 49 | 1018.0 |
| 20260905112244 | 70 | 260 | 12.2 | 0.0 | 0.00 | 0.00 | 0.00 | 49 | |
| 20260905111852 | 70 | 250 | 13.0 | 0.0 | 0.00 | 0.00 | 0.00 | 49 | 1018.0 |
| 20260905110231 | 70 | 250 | 13.0 | 0.0 | 0.00 | 0.00 | 0.00 | 49 | 1018.0 |
| 20260905105238 | 70 | 230 | 13.9 | 0.0 | 0.00 | 0.00 | 0.00 | 52 | 1018.0 |
| 20260905105100 | 70 | 230 | 13.9 | 0.0 | 0.00 | 0.00 | 0.00 | 52 | 1018.0 |
| 20260905104638 | 70 | 230 | 13.9 | 0.0 | 0.00 | 0.00 | 0.00 | 52 | 1018.0 |
| 20260905104338 | 70 | 230 | 13.9 | 0.0 | 0.00 | 0.00 | 0.00 | 52 | 1018.0 |
| 20260905103231 | 70 | 230 | 13.9 | 0.0 | 0.00 | 0.00 | 0.00 | 52 | 1018.0 |
| 20260905102838 | 68 | 240 | 15.6 | 0.0 | 0.00 | 0.00 | 0.00 | 60 | 1018.0 |
| 20260905102637 | 68 | 240 | 15.6 | 0.0 | 0.00 | 0.00 | 0.00 | 60 | |
| 20260905102343 | 68 | 240 | 15.6 | 0.0 | 0.00 | 0.00 | 0.00 | 60 | 1018.0 |
| 20260905101938 | 68 | 240 | 15.6 | 0.0 | 0.00 | 0.00 | 0.00 | 60 | 1018.0 |
| 20260905101438 | 68 | 240 | 15.6 | 0.0 | 0.00 | 0.00 | 0.00 | 60 | 1018.0 |
| 20260905100838 | 68 | 240 | 15.6 | 0.0 | 0.00 | 0.00 | 0.00 | 60 | 1018.0 |
| 20260905100344 | 68 | 240 | 15.6 | 0.0 | 0.00 | 0.00 | 0.00 | 60 | 1018.0 |
| 20260905095238 | 64 | 250 | 13.9 | 0.0 | 0.00 | 0.00 | 0.00 | 67 | 1018.0 |
| 20260905094838 | 64 | 250 | 13.9 | 0.0 | 0.00 | 0.00 | 0.00 | 67 | 1018.0 |
| 20260905094238 | 64 | 250 | 13.9 | 0.0 | 0.00 | 0.00 | 0.00 | 67 | 1018.0 |
| 20260905093739 | 64 | 250 | 13.9 | 0.0 | 0.00 | 0.00 | 0.00 | 67 | 1018.0 |
| 20260905092438 | 64 | 250 | 13.9 | 0.0 | 0.00 | 0.00 | 0.00 | 72 | 1018.0 |
| 20260905092242 | 64 | 250 | 13.9 | 0.0 | 0.00 | 0.00 | 0.00 | 72 | |
| 20260905091951 | 64 | 250 | 13.9 | 0.0 | 0.00 | 0.00 | 0.00 | 72 | 1018.0 |
| 20260905090839 | 64 | 250 | 13.9 | 0.0 | 0.00 | 0.00 | 0.00 | 72 | 1018.0 |
| 20260905090236 | 64 | 250 | 13.9 | 0.0 | 0.00 | 0.00 | 0.00 | 72 | 1018.0 |
| 20260905084238 | 63 | 240 | 13.9 | 0.0 | 0.00 | 0.00 | 0.00 | 77 | 1018.0 |
| 20260905083231 | 63 | 240 | 13.9 | 0.0 | 0.00 | 0.00 | 0.00 | 77 | 1018.0 |
| 20260905082235 | 63 | 240 | 10.4 | 0.0 | 0.00 | 0.00 | 0.00 | 77 | |
| 20260905080234 | 63 | 230 | 10.4 | 0.0 | 0.00 | 0.00 | 0.00 | 77 | 1018.0 |
| 20260905073230 | 61 | 230 | 7.8 | 0.0 | 0.00 | 0.00 | 0.00 | 87 | 1018.0 |
| 20260905072535 | 61 | 0 | 4.3 | 0.0 | 0.00 | 0.00 | 0.00 | 87 | |
| 20260905070232 | 61 | 270 | 4.3 | 0.0 | 0.00 | 0.00 | 0.00 | 82 | 1017.0 |
| 20260905063231 | 61 | 250 | 8.7 | 0.0 | 0.00 | 0.00 | 0.00 | 82 | 1017.0 |
| 20260905062235 | 63 | 220 | 10.4 | 0.0 | 0.00 | 0.00 | 0.00 | 77 | |
| 20260905060237 | 61 | 220 | 10.4 | 0.0 | 0.00 | 0.00 | 0.00 | 82 | 1017.0 |
| 20260905053223 | 61 | 220 | 10.4 | 0.0 | 0.00 | 0.00 | 0.00 | 87 | 1017.0 |
| 20260905052231 | 64 | 220 | 10.4 | 0.0 | 0.00 | 0.00 | 0.00 | 72 | |
| 20260905050234 | 63 | 220 | 8.7 | 0.0 | 0.00 | 0.00 | 0.00 | 82 | 1016.0 |
| 20260905043224 | 63 | 220 | 7.8 | 0.0 | 0.00 | 0.00 | 0.00 | 82 | 1015.0 |
| 20260905042636 | 64 | 250 | 6.1 | 0.0 | 0.00 | 0.00 | 0.00 | 72 | |
| 20260905042404 | 63 | 240 | 8.7 | 0.0 | 0.00 | 0.00 | 0.00 | 82 | 1016.0 |
| 20260905040237 | 64 | 260 | 7.0 | 0.0 | 0.00 | 0.00 | 0.00 | 77 | 1015.0 |
| 20260905033224 | 66 | 0 | 1.7 | 0.0 | 0.00 | 0.00 | 0.00 | 63 | 1015.0 |
| 20260905032235 | 68 | 0 | 1.7 | 0.0 | 0.00 | 0.00 | 0.00 | 60 | |
| 20260905030234 | 68 | 120 | 4.3 | 0.0 | 0.00 | 0.00 | 0.00 | 60 | 1014.0 |
| 20260905023224 | 66 | 120 | 4.3 | 0.0 | 0.00 | 0.00 | 0.00 | 63 | 1014.0 |
| 20260905022233 | 68 | 110 | 6.1 | 0.0 | 0.00 | 0.00 | 0.00 | 60 | |
| 20260905020233 | 66 | 110 | 5.2 | 0.0 | 0.00 | 0.00 | 0.00 | 63 | 1014.0 |
| 20260905013223 | 66 | 90 | 6.1 | 0.0 | 0.00 | 0.00 | 0.00 | 68 | 1014.0 |
| 20260905012550 | 68 | 80 | 6.1 | 0.0 | 0.00 | 0.00 | 0.00 | 64 | |
| 20260905010233 | 66 | 80 | 5.2 | 0.0 | 0.00 | 0.00 | 0.00 | 68 | 1014.0 |
| 20260905003224 | 66 | 70 | 6.1 | 0.0 | 0.00 | 0.00 | 0.00 | 68 | 1014.0 |
| 20260905002247 | 68 | 30 | 7.8 | 0.0 | 0.00 | 0.00 | 0.00 | 64 | |
| 20260905000233 | 66 | 40 | 8.7 | 0.0 | 0.00 | 0.00 | 0.00 | 68 | 1013.0 |
| 20260904233224 | 68 | 10 | 12.2 | 0.0 | 0.00 | 0.00 | 0.00 | 60 | 1012.0 |
| 20260904232319 | 70 | 360 | 12.2 | 0.0 | 0.00 | 0.00 | 0.00 | 60 | |
| 20260904230234 | 70 | 360 | 12.2 | 0.0 | 0.00 | 0.00 | 0.00 | 60 | 1012.0 |
| 20260904223224 | 72 | 230 | 11.3 | 0.0 | 0.00 | 0.00 | 0.00 | 53 | 1011.0 |
| 20260904222649 | 75 | 230 | 12.2 | 0.0 | 0.00 | 0.00 | 0.00 | 47 | |
| 20260904220233 | 72 | 230 | 11.3 | 0.0 | 0.00 | 0.00 | 0.00 | 56 | 1011.0 |
| 20260904213224 | 73 | 220 | 10.4 | 0.0 | 0.00 | 0.00 | 0.00 | 49 | 1010.0 |
| 20260904212233 | 75 | 220 | 10.4 | 0.0 | 0.00 | 0.00 | 0.00 | 47 | |
| 20260904210233 | 75 | 220 | 11.3 | 0.0 | 0.00 | 0.00 | 0.00 | 47 | 1010.0 |
| 20260904203223 | 75 | 190 | 7.0 | 0.0 | 0.00 | 0.00 | 0.00 | 47 | 1011.0 |
| 20260904202231 | 77 | 180 | 7.8 | 0.0 | 0.00 | 0.00 | 0.00 | 47 | |
| 20260904200236 | 75 | 170 | 6.1 | 0.0 | 0.00 | 0.00 | 0.00 | 50 | 1011.0 |
| 20260904193224 | 77 | 190 | 5.2 | 0.0 | 0.00 | 0.00 | 0.00 | 44 | 1011.0 |
| 20260904192531 | 79 | 210 | 10.4 | 0.0 | 0.00 | 0.00 | 0.00 | 41 | |
| 20260904190236 | 79 | 220 | 10.4 | 0.0 | 0.00 | 0.00 | 0.00 | 44 | 1011.0 |